Time;durP1;ratioP1;P1;durP2;ratioP2;P2;SDS_P1;SDS_P2;PMS_P1;PMS_P2;Temp;Humidity;BMP_temperature;BMP_pressure;BME280_temperature;BME280_humidity;BME280_pressure;Samples;Min_cycle;Max_cycle;Signal;HPM_P1;HPM_P2
2021/03/31 00:01:12;;;;;;;19.08;9.85;;;;;;;;;;4990520;28;20108;-76
2021/03/31 00:03:39;;;;;;;15.10;8.63;;;;;;;;;;4991441;28;20146;-76
2021/03/31 00:06:05;;;;;;;22.45;10.82;;;;;;;;;;4991221;28;20051;-76
2021/03/31 00:08:32;;;;;;;29.23;11.70;;;;;;;;;;4971600;28;20050;-76
2021/03/31 00:11:00;;;;;;;13.98;8.40;;;;;;;;;;4954651;28;20079;-76
2021/03/31 00:13:31;;;;;;;13.57;6.38;;;;;;;;;;4971878;28;20058;-76
2021/03/31 00:15:57;;;;;;;17.63;6.45;;;;;;;;;;4954024;28;20090;-77
2021/03/31 00:18:24;;;;;;;17.30;6.35;;;;;;;;;;4989842;28;20054;-76
2021/03/31 00:20:51;;;;;;;12.18;6.60;;;;;;;;;;4957121;28;20130;-76
2021/03/31 00:23:21;;;;;;;15.15;7.75;;;;;;;;;;4983722;28;20050;-76
2021/03/31 00:25:47;;;;;;;15.55;7.38;;;;;;;;;;4973445;28;20116;-76
2021/03/31 00:28:15;;;;;;;19.25;8.98;;;;;;;;;;4990937;28;20105;-76
2021/03/31 00:30:42;;;;;;;20.65;9.27;;;;;;;;;;4990907;28;20109;-76
2021/03/31 00:33:09;;;;;;;19.25;9.27;;;;;;;;;;4973527;28;20529;-76
2021/03/31 00:35:37;;;;;;;21.38;8.95;;;;;;;;;;4990924;28;20169;-76
2021/03/31 00:38:04;;;;;;;20.65;9.27;;;;;;;;;;4957440;28;20089;-76
2021/03/31 00:40:41;;;;;;;18.30;8.63;;;;;;;;;;4954209;28;20063;-76
2021/03/31 00:43:08;;;;;;;22.58;10.15;;;;;;;;;;4953529;28;20055;-76
2021/03/31 00:45:35;;;;;;;19.92;7.80;;;;;;;;;;4980393;28;20086;-76
2021/03/31 00:48:08;;;;;;;26.90;8.73;;;;;;;;;;4974481;28;20054;-76
2021/03/31 00:50:35;;;;;;;16.70;5.03;;;;;;;;;;4974290;28;20515;-76
2021/03/31 00:53:02;;;;;;;17.65;7.35;;;;;;;;;;4990034;28;20046;-76
2021/03/31 00:55:31;;;;;;;16.95;7.47;;;;;;;;;;4971642;28;20085;-76
2021/03/31 00:57:58;;;;;;;14.65;7.13;;;;;;;;;;4989974;28;20054;-76
2021/03/31 01:00:25;;;;;;;20.70;7.70;;;;;;;;;;4990247;28;20161;-76
2021/03/31 01:02:52;;;;;;;18.63;8.55;;;;;;;;;;4972439;28;20096;-76
2021/03/31 01:05:20;;;;;;;24.35;8.85;;;;;;;;;;4983166;28;20047;-77
2021/03/31 01:07:47;;;;;;;23.75;8.35;;;;;;;;;;4969246;28;20197;-76
2021/03/31 01:10:15;;;;;;;21.67;8.07;;;;;;;;;;4954113;28;20079;-76
2021/03/31 01:12:44;;;;;;;13.13;6.70;;;;;;;;;;4953355;28;20165;-76
2021/03/31 01:15:18;;;;;;;11.30;6.22;;;;;;;;;;4957600;28;20057;-76
2021/03/31 01:18:03;;;;;;;12.00;6.85;;;;;;;;;;4971234;28;20141;-76
2021/03/31 01:20:49;;;;;;;16.25;7.40;;;;;;;;;;4971663;28;20057;-76
2021/03/31 01:23:15;;;;;;;14.88;6.75;;;;;;;;;;4989022;28;20085;-76
2021/03/31 01:25:48;;;;;;;11.88;7.00;;;;;;;;;;4989445;28;20579;-76
2021/03/31 01:28:34;;;;;;;17.00;6.75;;;;;;;;;;4989715;28;20763;-76
2021/03/31 01:31:14;;;;;;;15.50;7.28;;;;;;;;;;4971976;28;20058;-76
2021/03/31 01:34:00;;;;;;;16.63;8.02;;;;;;;;;;4989162;28;20054;-76
2021/03/31 01:36:27;;;;;;;;;;;;;;;;;;4970949;28;20042;-76
2021/03/31 01:38:56;;;;;;;29.70;8.90;;;;;;;;;;4989132;28;20028;-76
2021/03/31 01:41:23;;;;;;;21.00;8.13;;;;;;;;;;4987329;28;20521;-77
2021/03/31 01:43:51;;;;;;;27.65;9.15;;;;;;;;;;4970767;28;20414;-76
2021/03/31 01:46:38;;;;;;;18.73;6.82;;;;;;;;;;4986929;28;20053;-76
2021/03/31 01:49:06;;;;;;;19.13;7.25;;;;;;;;;;4971689;28;20581;-77
2021/03/31 01:51:34;;;;;;;14.88;6.82;;;;;;;;;;4988176;28;20086;-76
2021/03/31 01:54:02;;;;;;;19.45;6.13;;;;;;;;;;4988150;28;20046;-76
2021/03/31 01:56:29;;;;;;;11.10;5.68;;;;;;;;;;4989169;28;20100;-75
2021/03/31 01:58:57;;;;;;;9.52;5.07;;;;;;;;;;4989714;28;20050;-76
2021/03/31 02:01:25;;;;;;;8.27;4.93;;;;;;;;;;4971851;28;20051;-76
2021/03/31 02:03:57;;;;;;;10.48;5.80;;;;;;;;;;4990089;28;20050;-75
2021/03/31 02:06:27;;;;;;;13.35;5.95;;;;;;;;;;4989470;28;20058;-75
2021/03/31 02:08:56;;;;;;;10.77;6.00;;;;;;;;;;4972500;28;20054;-76
2021/03/31 02:11:26;;;;;;;11.73;5.65;;;;;;;;;;4971485;28;20714;-76
2021/03/31 02:13:53;;;;;;;12.00;5.82;;;;;;;;;;4969755;28;20055;-76
2021/03/31 02:16:21;;;;;;;9.40;5.05;;;;;;;;;;4968826;28;20182;-76
2021/03/31 02:18:52;;;;;;;15.02;6.00;;;;;;;;;;4953218;28;20057;-75
2021/03/31 02:21:19;;;;;;;9.68;5.75;;;;;;;;;;4952580;28;20744;-76
2021/03/31 02:23:47;;;;;;;16.10;5.45;;;;;;;;;;4988672;28;20046;-75
2021/03/31 02:26:14;;;;;;;14.25;5.75;;;;;;;;;;4972443;28;20057;-75
2021/03/31 02:28:41;;;;;;;17.33;7.15;;;;;;;;;;4972218;28;20538;-75
2021/03/31 02:31:08;;;;;;;16.90;7.97;;;;;;;;;;4989093;28;20057;-75
2021/03/31 02:33:36;;;;;;;14.77;6.00;;;;;;;;;;4972082;28;20078;-76
2021/03/31 02:36:04;;;;;;;8.15;4.55;;;;;;;;;;4968310;28;20059;-75
2021/03/31 02:38:32;;;;;;;7.28;4.00;;;;;;;;;;4969921;28;20055;-75
2021/03/31 02:41:00;;;;;;;10.13;4.15;;;;;;;;;;4970565;28;20070;-76
2021/03/31 02:43:27;;;;;;;8.05;4.32;;;;;;;;;;4982077;28;20419;-75
2021/03/31 02:45:55;;;;;;;7.97;4.32;;;;;;;;;;4985252;28;20515;-75
2021/03/31 02:48:24;;;;;;;12.32;5.72;;;;;;;;;;4969822;28;20050;-75
2021/03/31 02:50:55;;;;;;;15.15;7.35;;;;;;;;;;4969164;28;20082;-75
2021/03/31 02:53:23;;;;;;;15.57;6.75;;;;;;;;;;4966796;28;20081;-75
2021/03/31 02:55:52;;;;;;;16.20;7.30;;;;;;;;;;4990264;28;20063;-78
2021/03/31 02:58:19;;;;;;;17.42;7.60;;;;;;;;;;4992820;28;20077;-79
2021/03/31 03:00:46;;;;;;;15.63;8.07;;;;;;;;;;4992524;28;20291;-79
2021/03/31 03:03:13;;;;;;;17.17;7.85;;;;;;;;;;4992792;28;20058;-80
2021/03/31 03:05:40;;;;;;;16.80;8.27;;;;;;;;;;4956225;28;20058;-80
2021/03/31 03:08:07;;;;;;;19.38;8.20;;;;;;;;;;4955933;28;20117;-80
2021/03/31 03:10:33;;;;;;;23.85;8.30;;;;;;;;;;4973069;28;20047;-81
2021/03/31 03:13:05;;;;;;;20.65;9.45;;;;;;;;;;4973039;28;20480;-81
2021/03/31 03:15:32;;;;;;;19.92;9.55;;;;;;;;;;4973102;28;20078;-81
2021/03/31 03:17:59;;;;;;;26.40;10.52;;;;;;;;;;4972611;28;20125;-81
2021/03/31 03:20:26;;;;;;;35.55;11.88;;;;;;;;;;4973047;28;20055;-81
2021/03/31 03:22:55;;;;;;;28.77;10.60;;;;;;;;;;4981879;28;20082;-80
2021/03/31 03:25:25;;;;;;;25.58;9.57;;;;;;;;;;4975180;28;20777;-80
2021/03/31 03:27:55;;;;;;;29.30;9.30;;;;;;;;;;4992539;28;20058;-80
2021/03/31 03:30:25;;;;;;;22.17;9.40;;;;;;;;;;4978024;28;20097;-81
2021/03/31 03:32:53;;;;;;;21.85;8.48;;;;;;;;;;4979942;28;20794;-80
2021/03/31 03:35:25;;;;;;;24.33;9.13;;;;;;;;;;4996295;28;20070;-80
2021/03/31 03:37:52;;;;;;;24.63;8.75;;;;;;;;;;4996132;28;20065;-80
2021/03/31 03:40:22;;;;;;;17.00;8.13;;;;;;;;;;4996199;28;20047;-80
2021/03/31 03:42:49;;;;;;;18.23;7.47;;;;;;;;;;4996576;28;20157;-80
2021/03/31 03:45:16;;;;;;;18.42;7.05;;;;;;;;;;4996470;28;20149;-81
2021/03/31 03:47:44;;;;;;;17.20;7.10;;;;;;;;;;4995872;28;20168;-80
2021/03/31 03:50:12;;;;;;;13.57;7.40;;;;;;;;;;4995930;28;20090;-80
2021/03/31 03:52:39;;;;;;;16.08;6.95;;;;;;;;;;4996501;28;20050;-80
2021/03/31 03:55:07;;;;;;;10.48;6.35;;;;;;;;;;4994855;28;20078;-81
2021/03/31 03:57:34;;;;;;;17.13;6.13;;;;;;;;;;4978759;28;20054;-81
2021/03/31 04:00:14;;;;;;;14.38;6.40;;;;;;;;;;4996508;28;20046;-81
2021/03/31 04:02:41;;;;;;;15.15;6.28;;;;;;;;;;4979163;28;20054;-81
2021/03/31 04:05:10;;;;;;;11.82;5.75;;;;;;;;;;4985537;28;20664;-81
2021/03/31 04:07:37;;;;;;;15.52;5.82;;;;;;;;;;4976167;28;20093;-81
2021/03/31 04:10:06;;;;;;;9.23;5.72;;;;;;;;;;4976334;28;20058;-80
2021/03/31 04:12:34;;;;;;;12.38;6.20;;;;;;;;;;4988585;28;20076;-81
2021/03/31 04:15:02;;;;;;;11.95;6.15;;;;;;;;;;4979027;28;20483;-81
2021/03/31 04:17:45;;;;;;;14.52;6.18;;;;;;;;;;4995685;28;20050;-80
2021/03/31 04:20:13;;;;;;;12.68;6.38;;;;;;;;;;4975121;28;20488;-81
2021/03/31 04:22:40;;;;;;;15.82;7.07;;;;;;;;;;4978102;28;20703;-81
2021/03/31 04:25:13;;;;;;;12.05;6.45;;;;;;;;;;4994943;28;20093;-81
2021/03/31 04:27:40;;;;;;;13.48;6.85;;;;;;;;;;4994614;28;20056;-81
2021/03/31 04:30:09;;;;;;;14.00;7.35;;;;;;;;;;4994744;28;20051;-81
2021/03/31 04:32:38;;;;;;;12.77;7.10;;;;;;;;;;4994371;28;20475;-81
2021/03/31 04:35:06;;;;;;;14.73;7.40;;;;;;;;;;4994471;28;20583;-81
2021/03/31 04:37:32;;;;;;;19.40;7.03;;;;;;;;;;4994381;28;20042;-80
2021/03/31 04:39:59;;;;;;;17.88;7.85;;;;;;;;;;4994176;28;20752;-81
2021/03/31 04:42:27;;;;;;;17.58;7.78;;;;;;;;;;4975371;28;20050;-81
2021/03/31 04:44:54;;;;;;;16.95;7.18;;;;;;;;;;4994290;28;20070;-79
2021/03/31 04:47:20;;;;;;;15.55;7.97;;;;;;;;;;4976596;28;20074;-81
2021/03/31 04:49:47;;;;;;;20.55;8.52;;;;;;;;;;4994438;28;20089;-77
2021/03/31 04:52:14;;;;;;;18.25;8.35;;;;;;;;;;4988172;28;20082;-78
2021/03/31 04:54:41;;;;;;;47.78;11.55;;;;;;;;;;4992682;28;20061;-75
2021/03/31 04:57:09;;;;;;;26.00;9.27;;;;;;;;;;4992231;28;20043;-76
2021/03/31 04:59:36;;;;;;;26.98;9.00;;;;;;;;;;4993649;28;20054;-80
2021/03/31 05:02:02;;;;;;;21.95;8.60;;;;;;;;;;4975254;28;20511;-78
2021/03/31 05:04:29;;;;;;;19.65;8.23;;;;;;;;;;4991895;28;20050;-76
2021/03/31 05:06:56;;;;;;;18.45;9.35;;;;;;;;;;4993041;28;20503;-84
2021/03/31 05:09:23;;;;;;;20.27;8.63;;;;;;;;;;4994323;28;20081;-84
2021/03/31 05:11:50;;;;;;;20.63;8.05;;;;;;;;;;4976737;28;20054;-83
2021/03/31 05:14:17;;;;;;;21.35;8.50;;;;;;;;;;4965732;28;20047;-82
2021/03/31 05:16:43;;;;;;;16.17;7.38;;;;;;;;;;4976855;28;20507;-79
2021/03/31 05:19:10;;;;;;;20.35;8.45;;;;;;;;;;4980684;28;20512;-77
2021/03/31 05:21:36;;;;;;;18.90;8.05;;;;;;;;;;4990421;28;20524;-79
2021/03/31 05:24:04;;;;;;;17.08;7.13;;;;;;;;;;4991796;28;20081;-77
2021/03/31 05:26:31;;;;;;;17.38;8.13;;;;;;;;;;4987964;28;20341;-81
2021/03/31 05:28:57;;;;;;;30.48;8.77;;;;;;;;;;4993037;28;20567;-80
2021/03/31 05:31:24;;;;;;;28.30;8.95;;;;;;;;;;4993425;28;20543;-78
2021/03/31 05:33:51;;;;;;;26.95;8.93;;;;;;;;;;4976257;28;20113;-79
2021/03/31 05:36:17;;;;;;;22.08;9.43;;;;;;;;;;4978241;28;20097;-78
2021/03/31 05:38:44;;;;;;;22.35;10.73;;;;;;;;;;4974195;28;20113;-79
2021/03/31 05:41:18;;;;;;;30.73;10.32;;;;;;;;;;4955870;28;20066;-79
2021/03/31 05:43:45;;;;;;;27.33;10.45;;;;;;;;;;4974052;28;20056;-79
2021/03/31 05:46:12;;;;;;;37.95;10.52;;;;;;;;;;4973369;28;20066;-79
2021/03/31 05:48:39;;;;;;;35.38;12.00;;;;;;;;;;4973889;28;20051;-79
2021/03/31 05:51:06;;;;;;;35.28;11.68;;;;;;;;;;4973597;28;20051;-79
2021/03/31 05:53:32;;;;;;;34.15;11.43;;;;;;;;;;4987504;28;20043;-79
2021/03/31 05:55:59;;;;;;;33.50;11.73;;;;;;;;;;4992785;28;20129;-79
2021/03/31 05:58:26;;;;;;;28.02;10.65;;;;;;;;;;4993897;28;20046;-79
2021/03/31 06:00:54;;;;;;;31.70;10.27;;;;;;;;;;4975611;28;20479;-79
2021/03/31 06:03:21;;;;;;;34.00;11.35;;;;;;;;;;4993025;28;20065;-79
2021/03/31 06:05:48;;;;;;;29.13;10.30;;;;;;;;;;4992854;28;20054;-80
2021/03/31 06:08:15;;;;;;;35.88;11.05;;;;;;;;;;4991847;28;20050;-79
2021/03/31 06:10:42;;;;;;;23.77;10.40;;;;;;;;;;4975172;28;20050;-79
2021/03/31 06:13:11;;;;;;;23.15;11.55;;;;;;;;;;4993036;28;20057;-79
2021/03/31 06:15:43;;;;;;;27.90;11.60;;;;;;;;;;4992518;28;20088;-79
2021/03/31 06:18:10;;;;;;;39.17;13.02;;;;;;;;;;4975510;28;20129;-79
2021/03/31 06:20:50;;;;;;;33.00;12.98;;;;;;;;;;4975846;28;20411;-79
2021/03/31 06:23:35;;;;;;;37.30;12.57;;;;;;;;;;4987498;28;20051;-79
2021/03/31 06:26:19;;;;;;;33.42;12.32;;;;;;;;;;4986440;28;20054;-79
2021/03/31 06:28:52;;;;;;;31.08;12.93;;;;;;;;;;4975285;28;20050;-79
2021/03/31 06:31:37;;;;;;;29.00;11.93;;;;;;;;;;4992618;28;20140;-79
2021/03/31 06:34:07;;;;;;;33.05;11.70;;;;;;;;;;4992655;28;20459;-79
2021/03/31 06:36:35;;;;;;;30.83;11.90;;;;;;;;;;4981334;28;20046;-80
2021/03/31 06:39:15;;;;;;;35.25;10.25;;;;;;;;;;4973240;28;20683;-79
2021/03/31 06:41:50;;;;;;;18.88;9.63;;;;;;;;;;4972103;28;20069;-79
2021/03/31 06:44:30;;;;;;;23.08;10.52;;;;;;;;;;4957099;28;20043;-79
2021/03/31 06:47:05;;;;;;;23.00;10.13;;;;;;;;;;4955697;28;20142;-79
2021/03/31 06:49:33;;;;;;;20.55;10.10;;;;;;;;;;4972883;28;20050;-79
2021/03/31 06:52:04;;;;;;;23.40;10.48;;;;;;;;;;4975395;28;20082;-79
2021/03/31 06:54:40;;;;;;;19.98;10.90;;;;;;;;;;4993140;28;20055;-79
2021/03/31 06:57:06;;;;;;;24.63;12.45;;;;;;;;;;4991838;28;20078;-80
2021/03/31 06:59:33;;;;;;;29.58;12.90;;;;;;;;;;4991973;28;20133;-80
2021/03/31 07:02:04;;;;;;;27.83;13.27;;;;;;;;;;4991622;28;20141;-80
2021/03/31 07:04:31;;;;;;;30.08;13.63;;;;;;;;;;4975064;28;20515;-80
2021/03/31 07:06:59;;;;;;;21.15;12.00;;;;;;;;;;4995458;28;20097;-80
2021/03/31 07:09:26;;;;;;;26.23;12.68;;;;;;;;;;4995478;28;20108;-80
2021/03/31 07:11:52;;;;;;;30.77;12.40;;;;;;;;;;4995150;28;20514;-80
2021/03/31 07:14:21;;;;;;;31.42;13.52;;;;;;;;;;4993035;28;20070;-80
2021/03/31 07:16:50;;;;;;;20.20;11.05;;;;;;;;;;4976079;28;20750;-80
2021/03/31 07:19:17;;;;;;;24.75;11.95;;;;;;;;;;4976006;28;20130;-80
2021/03/31 07:22:04;;;;;;;25.17;11.93;;;;;;;;;;4975455;28;20050;-80
2021/03/31 07:24:31;;;;;;;25.33;11.30;;;;;;;;;;4992806;28;20211;-80
2021/03/31 07:26:58;;;;;;;26.85;13.02;;;;;;;;;;4977444;28;20435;-80
2021/03/31 07:29:25;;;;;;;25.33;13.18;;;;;;;;;;4995023;28;20077;-81
2021/03/31 07:31:58;;;;;;;21.95;12.02;;;;;;;;;;4977827;28;20447;-81
2021/03/31 07:34:29;;;;;;;21.42;13.65;;;;;;;;;;4995456;28;20051;-81
2021/03/31 07:36:56;;;;;;;26.13;13.48;;;;;;;;;;4978639;28;20058;-80
2021/03/31 07:39:25;;;;;;;30.85;14.40;;;;;;;;;;4994089;28;20104;-79
2021/03/31 07:41:57;;;;;;;29.20;13.30;;;;;;;;;;4993891;28;20077;-81
2021/03/31 07:44:25;;;;;;;27.13;13.45;;;;;;;;;;4993755;28;20058;-78
2021/03/31 07:46:53;;;;;;;20.48;12.57;;;;;;;;;;4975771;28;20051;-80
2021/03/31 07:49:20;;;;;;;33.92;14.07;;;;;;;;;;4992850;28;20491;-82
2021/03/31 07:51:54;;;;;;;23.30;13.05;;;;;;;;;;4994340;28;20125;-81
2021/03/31 07:54:21;;;;;;;23.08;12.63;;;;;;;;;;4993213;28;20042;-81
2021/03/31 07:56:47;;;;;;;29.30;12.82;;;;;;;;;;4992976;28;20100;-81
2021/03/31 07:59:17;;;;;;;24.83;13.45;;;;;;;;;;4986108;28;20051;-82
2021/03/31 08:01:55;;;;;;;24.23;12.85;;;;;;;;;;4975094;28;20047;-81
2021/03/31 08:04:30;;;;;;;31.48;13.23;;;;;;;;;;4974814;28;20089;-83
2021/03/31 08:07:00;;;;;;;90.22;21.15;;;;;;;;;;4973718;28;20530;-78
2021/03/31 08:09:30;;;;;;;37.97;13.90;;;;;;;;;;4972721;28;20456;-78
2021/03/31 08:12:01;;;;;;;25.65;12.20;;;;;;;;;;4972576;28;20174;-77
2021/03/31 08:14:29;;;;;;;18.15;11.18;;;;;;;;;;4954944;28;20190;-78
2021/03/31 08:16:57;;;;;;;25.13;12.88;;;;;;;;;;4972167;28;20078;-78
2021/03/31 08:19:32;;;;;;;20.10;11.65;;;;;;;;;;4955063;28;20082;-78
2021/03/31 08:22:00;;;;;;;24.10;11.27;;;;;;;;;;4974636;28;20096;-78
2021/03/31 08:24:45;;;;;;;29.67;12.85;;;;;;;;;;4991142;28;20054;-79
2021/03/31 08:27:13;;;;;;;18.80;11.10;;;;;;;;;;4976396;28;20047;-81
2021/03/31 08:29:43;;;;;;;23.15;12.60;;;;;;;;;;4977141;28;20082;-81
2021/03/31 08:32:11;;;;;;;17.90;11.52;;;;;;;;;;4994443;28;20047;-81
2021/03/31 08:34:38;;;;;;;23.13;12.60;;;;;;;;;;4994435;28;20137;-81
2021/03/31 08:37:17;;;;;;;19.73;12.00;;;;;;;;;;4994664;28;20057;-80
2021/03/31 08:39:44;;;;;;;19.52;11.55;;;;;;;;;;4995779;28;20054;-80
2021/03/31 08:42:11;;;;;;;24.90;13.00;;;;;;;;;;4994970;28;20514;-81
2021/03/31 08:44:38;;;;;;;25.23;12.93;;;;;;;;;;4997199;28;20046;-80
2021/03/31 08:47:14;;;;;;;23.27;12.00;;;;;;;;;;4997528;28;20050;-80
2021/03/31 08:49:42;;;;;;;22.42;12.07;;;;;;;;;;4995252;28;20093;-81
2021/03/31 08:52:10;;;;;;;19.65;10.98;;;;;;;;;;4977798;28;20105;-81
2021/03/31 08:54:38;;;;;;;23.25;12.80;;;;;;;;;;4994660;28;20050;-81
2021/03/31 08:57:05;;;;;;;22.58;12.73;;;;;;;;;;4994519;28;20061;-81
2021/03/31 08:59:33;;;;;;;25.25;13.02;;;;;;;;;;4995187;28;20054;-81
2021/03/31 09:02:03;;;;;;;20.83;13.10;;;;;;;;;;4995261;28;20088;-81
2021/03/31 09:04:31;;;;;;;21.45;13.77;;;;;;;;;;4994719;28;20061;-81
2021/03/31 09:06:59;;;;;;;24.45;14.27;;;;;;;;;;4993990;28;20046;-81
2021/03/31 09:09:31;;;;;;;20.95;13.02;;;;;;;;;;4993312;28;20054;-81
2021/03/31 09:12:03;;;;;;;19.85;14.02;;;;;;;;;;4992455;28;20054;-81
2021/03/31 09:14:30;;;;;;;24.48;14.70;;;;;;;;;;4968345;28;20105;-81
2021/03/31 09:16:58;;;;;;;19.67;13.07;;;;;;;;;;4974974;28;20503;-81
2021/03/31 09:19:27;;;;;;;26.02;15.02;;;;;;;;;;4975449;28;20046;-81
2021/03/31 09:21:54;;;;;;;24.02;15.02;;;;;;;;;;4974829;28;20047;-81
2021/03/31 09:24:23;;;;;;;26.40;15.27;;;;;;;;;;4972878;28;20046;-81
2021/03/31 09:27:06;;;;;;;22.77;13.77;;;;;;;;;;4993972;28;20116;-81
2021/03/31 09:29:34;;;;;;;19.70;13.95;;;;;;;;;;4994466;28;20085;-82
2021/03/31 09:32:03;;;;;;;26.00;14.05;;;;;;;;;;4977233;28;20054;-82
2021/03/31 09:34:31;;;;;;;21.48;14.10;;;;;;;;;;4993941;28;20050;-81
2021/03/31 09:37:10;;;;;;;23.30;13.70;;;;;;;;;;4982861;28;20093;-82
2021/03/31 09:39:42;;;;;;;27.58;15.23;;;;;;;;;;4974727;28;20042;-82
2021/03/31 09:42:22;;;;;;;23.40;14.45;;;;;;;;;;4974559;28;20043;-81
2021/03/31 09:44:49;;;;;;;26.15;15.30;;;;;;;;;;4974393;28;20046;-82
2021/03/31 09:47:17;;;;;;;20.15;14.50;;;;;;;;;;4974105;28;20133;-82
2021/03/31 09:49:51;;;;;;;28.80;17.90;;;;;;;;;;4974397;28;20046;-82
2021/03/31 09:52:18;;;;;;;21.92;14.60;;;;;;;;;;4978534;28;20604;-82
2021/03/31 09:54:45;;;;;;;21.65;14.70;;;;;;;;;;4993681;28;20096;-82
2021/03/31 09:57:18;;;;;;;23.38;15.38;;;;;;;;;;4977811;28;20064;-81
2021/03/31 09:59:45;;;;;;;21.05;13.70;;;;;;;;;;4994006;28;20082;-82
2021/03/31 10:02:12;;;;;;;24.75;14.55;;;;;;;;;;4991706;28;20059;-81
2021/03/31 10:04:41;;;;;;;24.63;15.15;;;;;;;;;;4993355;28;20196;-81
2021/03/31 10:07:10;;;;;;;23.70;15.15;;;;;;;;;;4993189;28;20447;-81
2021/03/31 10:09:50;;;;;;;21.27;13.82;;;;;;;;;;4976298;28;20054;-81
2021/03/31 10:12:26;;;;;;;22.13;13.82;;;;;;;;;;4976924;28;20050;-81
2021/03/31 10:14:53;;;;;;;20.67;14.52;;;;;;;;;;4973684;28;20059;-82
2021/03/31 10:17:21;;;;;;;31.60;14.95;;;;;;;;;;4974218;28;20058;-81
2021/03/31 10:19:48;;;;;;;23.08;14.73;;;;;;;;;;4990760;28;20099;-81
2021/03/31 10:22:16;;;;;;;16.80;13.48;;;;;;;;;;4986854;28;20050;-81
2021/03/31 10:25:03;;;;;;;18.02;13.77;;;;;;;;;;4986065;28;20056;-81
2021/03/31 10:27:49;;;;;;;20.60;14.40;;;;;;;;;;4992461;28;20046;-82
2021/03/31 10:30:36;;;;;;;19.77;12.57;;;;;;;;;;4992228;28;20053;-81
2021/03/31 10:33:23;;;;;;;20.52;14.10;;;;;;;;;;4991515;28;20047;-81
2021/03/31 10:35:55;;;;;;;17.88;13.25;;;;;;;;;;4991976;28;20456;-82
2021/03/31 10:38:52;;;;;;;17.38;13.13;;;;;;;;;;4993576;28;20056;-82
2021/03/31 10:46:50;;;;;;;21.38;13.05;;;;;;;;;;4976989;28;20531;-83
2021/03/31 10:51:56;;;;;;;17.17;12.48;;;;;;;;;;4978253;28;20051;-82
2021/03/31 10:54:26;;;;;;;17.98;13.18;;;;;;;;;;4979609;28;20051;-82
2021/03/31 10:57:14;;;;;;;19.45;13.07;;;;;;;;;;4976617;28;20090;-83
2021/03/31 10:59:40;;;;;;;17.60;13.05;;;;;;;;;;4977153;28;20129;-82
2021/03/31 11:02:07;;;;;;;23.58;14.35;;;;;;;;;;4977626;28;20078;-82
2021/03/31 11:04:34;;;;;;;22.58;14.07;;;;;;;;;;4976790;28;20055;-82
2021/03/31 11:07:01;;;;;;;15.32;12.55;;;;;;;;;;4975698;28;20082;-82
2021/03/31 11:09:29;;;;;;;20.25;13.15;;;;;;;;;;4978062;28;20134;-82
2021/03/31 11:11:56;;;;;;;16.75;12.38;;;;;;;;;;4997076;28;20050;-82
2021/03/31 11:14:23;;;;;;;18.13;13.43;;;;;;;;;;4997212;28;20057;-83
2021/03/31 11:16:57;;;;;;;21.52;12.07;;;;;;;;;;4979338;28;20134;-82
2021/03/31 11:27:41;;;;;;;16.58;12.38;;;;;;;;;;4995982;28;20097;-82
2021/03/31 11:30:10;;;;;;;17.90;12.20;;;;;;;;;;4995975;28;20507;-82
2021/03/31 11:32:37;;;;;;;18.85;11.77;;;;;;;;;;4994356;28;20046;-82
2021/03/31 11:35:04;;;;;;;18.95;12.63;;;;;;;;;;4995633;28;20419;-83
2021/03/31 11:37:31;;;;;;;19.55;12.98;;;;;;;;;;4995365;28;20050;-82
2021/03/31 11:39:58;;;;;;;18.23;12.55;;;;;;;;;;4994813;28;20054;-83
2021/03/31 11:42:25;;;;;;;15.13;11.25;;;;;;;;;;4996011;28;20128;-83
2021/03/31 11:44:51;;;;;;;18.13;12.02;;;;;;;;;;4995971;28;20100;-83
2021/03/31 11:47:18;;;;;;;21.30;12.30;;;;;;;;;;4995533;28;20042;-82
2021/03/31 11:49:45;;;;;;;19.70;12.30;;;;;;;;;;4995389;28;20074;-83
2021/03/31 11:52:12;;;;;;;19.15;12.10;;;;;;;;;;4977558;28;20056;-82
2021/03/31 11:54:38;;;;;;;16.88;12.60;;;;;;;;;;4995046;28;20664;-82
2021/03/31 11:57:05;;;;;;;19.40;12.40;;;;;;;;;;4995426;28;20811;-82
2021/03/31 11:59:32;;;;;;;20.83;13.40;;;;;;;;;;4995653;28;20129;-82
2021/03/31 12:01:59;;;;;;;23.35;13.75;;;;;;;;;;4995533;28;20137;-82
2021/03/31 12:04:25;;;;;;;20.63;13.65;;;;;;;;;;4995712;28;20138;-82
2021/03/31 12:06:52;;;;;;;19.20;11.88;;;;;;;;;;4995336;28;20145;-82
2021/03/31 12:09:19;;;;;;;17.45;12.60;;;;;;;;;;4980547;28;20047;-81
2021/03/31 12:11:46;;;;;;;16.40;12.73;;;;;;;;;;4958324;28;20098;-82
2021/03/31 12:14:16;;;;;;;20.38;12.77;;;;;;;;;;4975768;28;20046;-82
2021/03/31 12:16:43;;;;;;;22.65;12.35;;;;;;;;;;4975684;28;20109;-82
2021/03/31 12:19:09;;;;;;;17.77;12.30;;;;;;;;;;4975230;28;20680;-81
2021/03/31 12:21:36;;;;;;;18.45;13.13;;;;;;;;;;4975981;28;20513;-82
2021/03/31 12:24:03;;;;;;;19.20;12.85;;;;;;;;;;4976077;28;20113;-81
2021/03/31 12:26:30;;;;;;;17.95;13.32;;;;;;;;;;4994465;28;20077;-81
2021/03/31 12:28:58;;;;;;;36.15;13.23;;;;;;;;;;4994209;28;20108;-82
2021/03/31 12:31:25;;;;;;;20.35;13.05;;;;;;;;;;4977136;28;20101;-82
2021/03/31 12:33:51;;;;;;;17.17;12.75;;;;;;;;;;4995038;28;20096;-82
2021/03/31 12:36:19;;;;;;;17.38;11.63;;;;;;;;;;4995254;28;20077;-82
2021/03/31 12:38:45;;;;;;;17.42;12.32;;;;;;;;;;4994758;28;20089;-82
2021/03/31 12:41:12;;;;;;;18.25;11.10;;;;;;;;;;4994816;28;20566;-82
2021/03/31 12:43:39;;;;;;;20.27;12.52;;;;;;;;;;4995124;28;20054;-82
2021/03/31 12:46:05;;;;;;;21.08;12.98;;;;;;;;;;4994786;28;20077;-82
2021/03/31 12:48:32;;;;;;;18.60;12.93;;;;;;;;;;4995141;28;20046;-82
2021/03/31 12:51:04;;;;;;;15.15;11.20;;;;;;;;;;4994940;28;20138;-82
2021/03/31 12:53:36;;;;;;;16.10;11.77;;;;;;;;;;4994737;28;20129;-82
2021/03/31 12:56:03;;;;;;;16.73;11.68;;;;;;;;;;4994494;28;20787;-81
2021/03/31 12:58:30;;;;;;;17.92;11.85;;;;;;;;;;4993934;28;20137;-82
2021/03/31 13:01:02;;;;;;;21.55;12.43;;;;;;;;;;4977135;28;20065;-82
2021/03/31 13:03:48;;;;;;;16.55;10.98;;;;;;;;;;4993431;28;20521;-81
2021/03/31 13:06:17;;;;;;;19.23;11.63;;;;;;;;;;4993280;28;20136;-82
2021/03/31 13:08:47;;;;;;;21.85;12.90;;;;;;;;;;4956160;28;20057;-82
2021/03/31 13:11:35;;;;;;;19.45;12.02;;;;;;;;;;4974794;28;20050;-81
2021/03/31 13:14:16;;;;;;;18.42;11.32;;;;;;;;;;4975236;28;20050;-81
2021/03/31 13:17:17;;;;;;;20.58;12.07;;;;;;;;;;4981207;28;20528;-81
2021/03/31 13:23:35;;;;;;;33.80;13.00;;;;;;;;;;4994945;28;20050;-81
2021/03/31 13:31:26;;;;;;;25.40;11.68;;;;;;;;;;4975671;28;20051;-81
2021/03/31 13:33:58;;;;;;;21.98;12.07;;;;;;;;;;4975052;28;20492;-81
2021/03/31 13:39:02;;;;;;;19.77;11.55;;;;;;;;;;4974569;28;20063;-81
2021/03/31 13:41:34;;;;;;;;;;;;;;;;;;4974950;28;20429;-81
2021/03/31 13:44:01;;;;;;;20.38;12.10;;;;;;;;;;4978423;28;19926;-81
2021/03/31 13:46:28;;;;;;;24.70;11.98;;;;;;;;;;4993573;28;20474;-81
2021/03/31 13:49:11;;;;;;;19.23;11.80;;;;;;;;;;4993929;28;20488;-81
2021/03/31 13:52:07;;;;;;;20.40;12.68;;;;;;;;;;4994223;28;20064;-81
2021/03/31 13:54:46;;;;;;;19.42;12.93;;;;;;;;;;4993611;28;20556;-81
2021/03/31 13:57:37;;;;;;;22.27;12.25;;;;;;;;;;4993665;28;20065;-81
2021/03/31 14:00:08;;;;;;;27.92;13.27;;;;;;;;;;4994018;28;20054;-81
2021/03/31 14:02:35;;;;;;;23.17;12.27;;;;;;;;;;4993978;28;20054;-80
2021/03/31 14:05:24;;;;;;;23.95;12.88;;;;;;;;;;4985077;28;20406;-81
2021/03/31 14:08:11;;;;;;;23.17;13.70;;;;;;;;;;4977442;28;20047;-81
2021/03/31 14:10:57;;;;;;;22.65;13.13;;;;;;;;;;4974144;28;20049;-81
2021/03/31 14:13:44;;;;;;;26.35;12.48;;;;;;;;;;4974010;28;20481;-81
2021/03/31 14:16:33;;;;;;;27.38;12.88;;;;;;;;;;4959690;28;20082;-81
2021/03/31 14:19:00;;;;;;;24.05;12.50;;;;;;;;;;4973872;28;20101;-81
2021/03/31 14:21:27;;;;;;;22.30;13.10;;;;;;;;;;4957300;28;20097;-81
2021/03/31 14:23:54;;;;;;;25.42;12.77;;;;;;;;;;4991190;28;20122;-82
2021/03/31 14:26:21;;;;;;;25.45;13.55;;;;;;;;;;4993180;28;20656;-83
2021/03/31 14:28:55;;;;;;;23.27;13.20;;;;;;;;;;4993578;28;20058;-82
2021/03/31 14:31:23;;;;;;;21.15;11.73;;;;;;;;;;4993717;28;20411;-81
2021/03/31 14:34:09;;;;;;;24.08;12.50;;;;;;;;;;4993654;28;20046;-82
2021/03/31 14:36:36;;;;;;;22.77;12.45;;;;;;;;;;4975869;28;20046;-82
2021/03/31 14:39:12;;;;;;;25.90;12.88;;;;;;;;;;4976457;28;20084;-82
2021/03/31 14:44:50;;;;;;;20.80;12.23;;;;;;;;;;4993238;28;20360;-82
2021/03/31 14:47:39;;;;;;;22.52;13.13;;;;;;;;;;4993164;28;20468;-82
2021/03/31 14:50:31;;;;;;;21.67;12.57;;;;;;;;;;4993918;28;20054;-83
2021/03/31 15:01:54;;;;;;;20.83;12.00;;;;;;;;;;4973183;28;20046;-83
2021/03/31 15:04:31;;;;;;;23.17;13.57;;;;;;;;;;4974475;28;20051;-83
2021/03/31 15:06:58;;;;;;;20.40;12.00;;;;;;;;;;4956154;28;20050;-83
2021/03/31 15:09:25;;;;;;;24.35;13.32;;;;;;;;;;4973994;28;20047;-82
2021/03/31 15:11:52;;;;;;;23.65;13.35;;;;;;;;;;4956543;28;20110;-82
2021/03/31 15:14:19;;;;;;;22.05;11.70;;;;;;;;;;4974104;28;20395;-82
2021/03/31 15:17:07;;;;;;;35.50;13.60;;;;;;;;;;4986169;28;20057;-83
2021/03/31 15:23:13;;;;;;;26.55;12.82;;;;;;;;;;4948847;28;20052;-83
2021/03/31 15:25:37;;;;;;;24.23;12.60;;;;;;;;;;4994013;28;20137;-82